createdAt,value
2022-08-29T00:00:26.702Z,91.33
2022-08-29T00:01:26.682Z,91.33
2022-08-29T00:02:26.772Z,91.42
2022-08-29T00:03:26.649Z,92.10
2022-08-29T00:04:26.637Z,91.71
2022-08-29T00:05:26.612Z,92.10
2022-08-29T00:06:26.601Z,91.61
2022-08-29T00:07:26.579Z,92.29
2022-08-29T00:08:26.571Z,92.19
2022-08-29T00:09:26.551Z,92.29
2022-08-29T00:10:26.539Z,91.61
2022-08-29T00:11:26.516Z,91.90
2022-08-29T00:12:26.505Z,91.90
2022-08-29T00:13:26.482Z,92.29
2022-08-29T00:14:26.472Z,92.10
2022-08-29T00:15:26.454Z,92.19
2022-08-29T00:16:26.499Z,92.24
2022-08-29T00:17:26.417Z,92.38
2022-08-29T00:18:26.408Z,92.82
2022-08-29T00:19:26.382Z,92.77
2022-08-29T00:20:30.261Z,93.01
2022-08-29T00:21:26.353Z,93.20
2022-08-29T00:22:26.338Z,92.91
2022-08-29T00:23:26.321Z,92.72
2022-08-29T00:24:26.309Z,93.20
2022-08-29T00:25:26.286Z,93.30
2022-08-29T00:26:26.272Z,93.68
2022-08-29T00:27:26.256Z,93.77
2022-08-29T00:28:26.240Z,93.77
2022-08-29T00:29:26.226Z,94.16
2022-08-29T00:30:26.212Z,94.74
2022-08-29T00:31:26.240Z,94.83
2022-08-29T00:32:26.171Z,94.74
2022-08-29T00:33:26.154Z,94.74
2022-08-29T00:34:26.142Z,94.93
2022-08-29T00:35:26.124Z,95.50
2022-08-29T00:36:26.105Z,95.12
2022-08-29T00:37:26.087Z,94.83
2022-08-29T00:38:27.970Z,94.74
2022-08-29T00:39:26.057Z,95.31
2022-08-29T00:40:26.185Z,95.31
2022-08-29T00:41:26.024Z,94.93
2022-08-29T00:42:26.012Z,95.12
2022-08-29T00:43:25.993Z,94.93
2022-08-29T00:44:25.976Z,95.12
2022-08-29T00:45:26.074Z,95.12
2022-08-29T00:46:25.941Z,95.41
2022-08-29T00:47:25.925Z,95.50
2022-08-29T00:48:25.911Z,94.93
2022-08-29T00:49:25.894Z,95.12
2022-08-29T00:50:25.877Z,95.60
2022-08-29T00:51:25.857Z,95.31
2022-08-29T00:52:25.842Z,95.31
2022-08-29T00:53:25.826Z,95.89
2022-08-29T00:54:25.811Z,95.79
2022-08-29T00:55:25.796Z,95.70
2022-08-29T00:56:25.787Z,95.98
2022-08-29T00:57:25.760Z,96.18
2022-08-29T00:58:25.743Z,96.08
2022-08-29T00:59:26.051Z,95.98
2022-08-29T01:00:25.714Z,95.89
2022-08-29T01:01:25.731Z,96.18
2022-08-29T01:02:25.735Z,96.08
2022-08-29T01:03:25.661Z,96.08
2022-08-29T01:04:25.643Z,96.75
2022-08-29T01:05:25.631Z,95.98
2022-08-29T01:06:25.614Z,96.75
2022-08-29T01:07:25.595Z,96.85
2022-08-29T01:08:25.575Z,96.66
2022-08-29T01:09:25.559Z,96.56
2022-08-29T01:10:25.543Z,96.75
2022-08-29T01:11:25.543Z,96.66
2022-08-29T01:12:25.516Z,95.98
2022-08-29T01:13:25.496Z,95.89
2022-08-29T01:14:25.477Z,96.27
2022-08-29T01:15:25.469Z,96.85
2022-08-29T01:16:25.532Z,97.14
2022-08-29T01:17:25.425Z,97.14
2022-08-29T01:18:25.412Z,96.80
2022-08-29T01:19:26.193Z,97.19
2022-08-29T01:20:25.383Z,97.66
2022-08-29T01:21:25.361Z,97.71
2022-08-29T01:22:25.345Z,98.05
2022-08-29T01:23:25.329Z,98.14
2022-08-29T01:24:25.310Z,98.43
2022-08-29T01:25:25.297Z,98.24
2022-08-29T01:26:25.278Z,98.14
2022-08-29T01:27:25.262Z,98.14
2022-08-29T01:28:25.249Z,98.29
2022-08-29T01:29:25.228Z,98.05
2022-08-29T01:30:25.210Z,98.05
2022-08-29T01:31:38.561Z,97.76
2022-08-29T01:32:25.268Z,97.95
2022-08-29T01:33:25.157Z,97.95
2022-08-29T01:34:25.144Z,97.86
2022-08-29T01:35:25.126Z,97.81
2022-08-29T01:36:25.114Z,97.61
2022-08-29T01:37:25.095Z,97.81
2022-08-29T01:38:25.079Z,97.81
2022-08-29T01:39:25.058Z,97.71
2022-08-29T01:40:25.101Z,97.09
2022-08-29T01:41:25.024Z,97.56
2022-08-29T01:42:25.012Z,97.86
2022-08-29T01:43:24.997Z,98.05
2022-08-29T01:44:24.985Z,98.05
2022-08-29T01:45:25.033Z,98.24
2022-08-29T01:46:24.948Z,97.95
2022-08-29T01:47:24.927Z,97.95
2022-08-29T01:48:24.911Z,98.24
2022-08-29T01:49:24.897Z,97.95
2022-08-29T01:50:24.878Z,97.95
2022-08-29T01:51:24.859Z,98.14
2022-08-29T01:52:24.850Z,98.91
2022-08-29T01:53:24.829Z,98.91
2022-08-29T01:54:24.810Z,98.62
2022-08-29T01:55:24.794Z,98.53
2022-08-29T01:56:24.778Z,98.24
2022-08-29T01:57:24.768Z,98.43
2022-08-29T01:58:24.741Z,99.29
2022-08-29T01:59:24.731Z,99.39
2022-08-29T02:00:24.714Z,99.10
2022-08-29T02:01:25.464Z,98.91
2022-08-29T02:02:24.764Z,99.39
2022-08-29T02:03:24.660Z,99.58
2022-08-29T02:04:24.643Z,99.29
2022-08-29T02:05:24.625Z,99.49
2022-08-29T02:06:24.605Z,99.39
2022-08-29T02:07:24.588Z,99.99
2022-08-29T02:08:24.576Z,99.77
2022-08-29T02:09:24.863Z,99.96
2022-08-29T02:10:24.537Z,99.58
2022-08-29T02:11:24.521Z,99.77
2022-08-29T02:12:24.506Z,99.99
2022-08-29T02:13:24.496Z,99.99
2022-08-29T02:14:24.470Z,99.99
2022-08-29T02:15:24.459Z,99.99
2022-08-29T02:16:24.522Z,99.99
2022-08-29T02:17:24.421Z,99.99
2022-08-29T02:18:24.404Z,99.99
2022-08-29T02:19:24.389Z,99.99
2022-08-29T02:20:24.369Z,99.99
2022-08-29T02:21:24.356Z,99.99
2022-08-29T02:22:24.338Z,99.99
2022-08-29T02:23:30.875Z,99.99
2022-08-29T02:24:26.098Z,99.99
2022-08-29T02:25:24.284Z,99.99
2022-08-29T02:26:24.270Z,99.99
2022-08-29T02:27:24.257Z,99.99
2022-08-29T02:28:24.237Z,99.99
2022-08-29T02:29:24.226Z,99.99
2022-08-29T02:30:24.202Z,99.99
2022-08-29T02:31:24.256Z,99.99
2022-08-29T02:32:24.166Z,99.99
2022-08-29T02:33:24.154Z,99.99
2022-08-29T02:34:24.139Z,99.99
2022-08-29T02:35:24.328Z,99.99
2022-08-29T02:36:24.103Z,99.99
2022-08-29T02:37:24.087Z,99.99
2022-08-29T02:38:24.067Z,99.99
2022-08-29T02:39:24.052Z,99.99
2022-08-29T02:40:24.769Z,99.99
2022-08-29T02:41:24.017Z,99.99
2022-08-29T02:42:23.996Z,99.99
2022-08-29T02:43:23.981Z,99.99
2022-08-29T02:44:23.962Z,99.99
2022-08-29T02:45:23.951Z,99.99
2022-08-29T02:46:23.959Z,99.99
2022-08-29T02:47:23.909Z,99.99
2022-08-29T02:48:23.903Z,99.99
2022-08-29T02:49:23.879Z,99.99
2022-08-29T02:50:23.862Z,99.99
2022-08-29T02:51:23.845Z,99.99
2022-08-29T02:52:23.828Z,99.99
2022-08-29T02:53:23.811Z,99.99
2022-08-29T02:54:23.818Z,99.99
2022-08-29T02:55:23.777Z,99.99
2022-08-29T02:56:23.762Z,99.99
2022-08-29T02:57:23.740Z,99.99
2022-08-29T02:58:23.723Z,99.99
2022-08-29T02:59:23.712Z,99.99
2022-08-29T03:00:23.688Z,99.99
2022-08-29T03:01:23.748Z,99.99
2022-08-29T03:02:23.683Z,99.99
2022-08-29T03:03:23.639Z,99.99
2022-08-29T03:04:23.626Z,99.99
2022-08-29T03:05:23.606Z,99.99
2022-08-29T03:06:23.588Z,99.99
2022-08-29T03:07:23.572Z,99.99
2022-08-29T03:08:23.553Z,99.99
2022-08-29T03:09:23.540Z,99.99
2022-08-29T03:10:23.522Z,99.99
2022-08-29T03:11:23.508Z,99.99
2022-08-29T03:12:23.482Z,99.99
2022-08-29T03:13:23.472Z,99.99
2022-08-29T03:14:23.446Z,99.99
2022-08-29T03:15:23.436Z,99.99
2022-08-29T03:16:23.455Z,99.99
2022-08-29T03:17:23.401Z,99.99
2022-08-29T03:18:23.385Z,99.99
2022-08-29T03:19:23.370Z,99.99
2022-08-29T03:20:23.351Z,99.99
2022-08-29T03:21:23.336Z,99.99
2022-08-29T03:22:23.319Z,99.99
2022-08-29T03:23:23.300Z,99.99
2022-08-29T03:24:26.909Z,99.99
2022-08-29T03:25:23.271Z,99.99
2022-08-29T03:26:23.245Z,99.99
2022-08-29T03:27:23.229Z,99.99
2022-08-29T03:28:23.226Z,99.99
2022-08-29T03:29:23.197Z,99.99
2022-08-29T03:30:24.059Z,99.99
2022-08-29T03:31:23.239Z,99.99
2022-08-29T03:32:23.148Z,99.99
2022-08-29T03:33:23.127Z,99.99
2022-08-29T03:34:23.110Z,99.99
2022-08-29T03:35:23.096Z,99.99
2022-08-29T03:36:23.073Z,99.99
2022-08-29T03:37:23.060Z,99.99
2022-08-29T03:38:23.052Z,99.99
2022-08-29T03:39:23.024Z,99.99
2022-08-29T03:40:23.100Z,99.99
2022-08-29T03:41:22.990Z,99.99
2022-08-29T03:42:22.965Z,99.99
2022-08-29T03:43:22.956Z,99.99
2022-08-29T03:44:22.935Z,99.99
2022-08-29T03:45:22.922Z,99.99
2022-08-29T03:46:22.976Z,99.99
2022-08-29T03:47:22.888Z,99.99
2022-08-29T03:48:22.868Z,99.99
2022-08-29T03:49:22.852Z,99.99
2022-08-29T03:50:22.832Z,99.99
2022-08-29T03:51:22.813Z,99.99
2022-08-29T03:52:22.803Z,99.99
2022-08-29T03:53:22.782Z,99.99
2022-08-29T03:54:22.762Z,99.99
2022-08-29T03:55:22.751Z,99.99
2022-08-29T03:56:22.727Z,99.99
2022-08-29T03:57:22.717Z,99.99
2022-08-29T03:58:22.695Z,99.99
2022-08-29T03:59:22.680Z,99.99
2022-08-29T04:00:22.665Z,99.99
2022-08-29T04:01:22.962Z,99.99
2022-08-29T04:02:22.704Z,99.99
2022-08-29T04:03:26.568Z,99.99
2022-08-29T04:04:22.592Z,99.99
2022-08-29T04:05:22.578Z,99.99
2022-08-29T04:06:22.558Z,99.99
2022-08-29T04:07:22.537Z,99.99
2022-08-29T04:08:22.518Z,99.99
2022-08-29T04:09:22.507Z,99.99
2022-08-29T04:10:22.486Z,99.99
2022-08-29T04:11:22.471Z,99.99
2022-08-29T04:12:22.452Z,99.99
2022-08-29T04:13:22.440Z,99.99
2022-08-29T04:14:22.419Z,99.99
2022-08-29T04:15:22.405Z,99.99
2022-08-29T04:16:22.488Z,99.99
2022-08-29T04:17:22.367Z,99.99
2022-08-29T04:18:22.558Z,99.99
2022-08-29T04:19:22.335Z,99.99
2022-08-29T04:20:25.052Z,99.99
2022-08-29T04:21:22.304Z,99.99
2022-08-29T04:22:22.277Z,99.99
2022-08-29T04:23:22.260Z,99.99
2022-08-29T04:24:22.246Z,99.99
2022-08-29T04:25:22.241Z,99.99
2022-08-29T04:26:37.889Z,99.99
2022-08-29T04:27:22.189Z,99.99
2022-08-29T04:28:22.172Z,99.99
2022-08-29T04:29:22.159Z,99.99
2022-08-29T04:30:22.137Z,99.99
2022-08-29T04:31:22.209Z,99.99
2022-08-29T04:32:22.109Z,99.99
2022-08-29T04:33:22.763Z,99.99
2022-08-29T04:34:22.068Z,99.99
2022-08-29T04:35:22.054Z,99.99
2022-08-29T04:36:22.041Z,99.99
2022-08-29T04:37:22.021Z,99.99
2022-08-29T04:38:21.999Z,99.99
2022-08-29T04:39:21.984Z,99.99
2022-08-29T04:40:22.103Z,99.99
2022-08-29T04:41:21.949Z,99.99
2022-08-29T04:42:21.936Z,99.99
2022-08-29T04:43:21.913Z,99.99
2022-08-29T04:44:21.897Z,99.99
2022-08-29T04:45:21.874Z,99.99
2022-08-29T04:46:23.970Z,99.99
2022-08-29T04:47:21.844Z,99.99
2022-08-29T04:48:21.830Z,99.99
2022-08-29T04:49:21.812Z,99.99
2022-08-29T04:50:21.792Z,99.99
2022-08-29T04:51:21.784Z,99.99
2022-08-29T04:52:21.756Z,99.99
2022-08-29T04:53:21.737Z,99.99
2022-08-29T04:54:21.719Z,99.99
2022-08-29T04:55:25.467Z,99.99
2022-08-29T04:56:21.686Z,99.99
2022-08-29T04:57:21.673Z,99.99
2022-08-29T04:58:21.646Z,99.99
2022-08-29T04:59:21.633Z,99.99
2022-08-29T05:00:21.624Z,99.99
2022-08-29T05:01:21.696Z,99.99
2022-08-29T05:02:21.617Z,99.99
2022-08-29T05:03:21.562Z,99.99
2022-08-29T05:04:21.549Z,99.99
2022-08-29T05:05:21.529Z,99.99
2022-08-29T05:06:22.712Z,99.99
2022-08-29T05:07:21.494Z,99.99
2022-08-29T05:08:21.478Z,99.99
2022-08-29T05:09:21.465Z,99.99
2022-08-29T05:10:21.438Z,99.99
2022-08-29T05:11:22.782Z,99.99
2022-08-29T05:12:21.410Z,99.99
2022-08-29T05:13:21.390Z,99.99
2022-08-29T05:14:21.372Z,99.99
2022-08-29T05:15:21.356Z,99.99
2022-08-29T05:16:21.406Z,99.99
2022-08-29T05:17:21.318Z,99.99
2022-08-29T05:18:21.299Z,99.99
2022-08-29T05:19:21.284Z,99.99
2022-08-29T05:20:21.266Z,99.99
2022-08-29T05:21:21.250Z,99.99
2022-08-29T05:22:21.230Z,99.99
2022-08-29T05:23:21.219Z,99.99
2022-08-29T05:24:21.198Z,99.99
2022-08-29T05:25:21.181Z,99.99
2022-08-29T05:26:21.164Z,99.99
2022-08-29T05:27:21.152Z,99.99
2022-08-29T05:28:21.133Z,99.99
2022-08-29T05:29:21.117Z,99.99
2022-08-29T05:30:35.066Z,99.99
2022-08-29T05:31:21.181Z,99.99
2022-08-29T05:32:21.062Z,99.99
2022-08-29T05:33:21.047Z,99.99
2022-08-29T05:34:34.902Z,99.99
2022-08-29T05:35:21.004Z,99.99
2022-08-29T05:36:20.988Z,99.99
2022-08-29T05:37:20.978Z,99.99
2022-08-29T05:38:20.953Z,99.99
2022-08-29T05:39:20.940Z,99.99
2022-08-29T05:40:21.001Z,99.99
2022-08-29T05:41:20.904Z,99.99
2022-08-29T05:42:20.892Z,99.99
2022-08-29T05:43:20.883Z,99.99
2022-08-29T05:44:20.857Z,99.99
2022-08-29T05:45:20.829Z,99.99
2022-08-29T05:46:20.841Z,99.99
2022-08-29T05:47:20.802Z,99.99
2022-08-29T05:48:20.787Z,99.99
2022-08-29T05:49:20.767Z,99.99
2022-08-29T05:50:20.748Z,99.99
2022-08-29T05:51:20.738Z,99.99
2022-08-29T05:52:20.714Z,99.99
2022-08-29T05:53:20.706Z,99.99
2022-08-29T05:54:20.682Z,99.99
2022-08-29T05:55:20.661Z,99.99
2022-08-29T05:56:20.646Z,99.99
2022-08-29T05:57:20.630Z,99.99
2022-08-29T05:58:20.616Z,99.99
2022-08-29T05:59:20.595Z,99.99
2022-08-29T06:00:20.579Z,99.99
2022-08-29T06:01:20.567Z,99.99
2022-08-29T06:02:20.748Z,99.99
2022-08-29T06:03:20.668Z,99.99
2022-08-29T06:04:20.511Z,99.99
2022-08-29T06:05:20.499Z,99.99
2022-08-29T06:06:20.476Z,99.99
2022-08-29T06:07:20.466Z,99.99
2022-08-29T06:08:20.445Z,99.99
2022-08-29T06:09:20.431Z,99.99
2022-08-29T06:10:20.411Z,99.99
2022-08-29T06:11:20.395Z,99.99
2022-08-29T06:12:20.377Z,99.99
2022-08-29T06:13:20.360Z,99.99
2022-08-29T06:14:20.343Z,99.99
2022-08-29T06:15:20.327Z,99.99
2022-08-29T06:16:20.355Z,99.99
2022-08-29T06:17:20.295Z,99.99
2022-08-29T06:18:22.947Z,99.99
2022-08-29T06:19:20.262Z,99.99
2022-08-29T06:20:20.250Z,99.99
2022-08-29T06:21:20.231Z,99.99
2022-08-29T06:22:20.216Z,99.99
2022-08-29T06:23:20.194Z,99.99
2022-08-29T06:24:20.183Z,99.99
2022-08-29T06:26:20.151Z,99.99
2022-08-29T06:27:20.130Z,98.67
2022-08-29T06:28:24.071Z,98.91
2022-08-29T06:29:20.098Z,98.24
2022-08-29T06:30:20.082Z,97.47
2022-08-29T06:31:20.168Z,97.09
2022-08-29T06:32:20.051Z,96.89
2022-08-29T06:33:20.031Z,96.99
2022-08-29T06:34:20.020Z,97.28
2022-08-29T06:35:20.003Z,96.61
2022-08-29T06:36:19.989Z,96.75
2022-08-29T06:37:19.982Z,96.08
2022-08-29T06:38:20.507Z,96.08
2022-08-29T06:39:19.940Z,96.17
2022-08-29T06:40:20.012Z,95.31
2022-08-29T06:41:19.906Z,95.40
2022-08-29T06:42:19.890Z,95.03
2022-08-29T06:43:19.877Z,94.88
2022-08-29T06:44:19.858Z,94.49
2022-08-29T06:45:19.847Z,94.21
2022-08-29T06:46:19.965Z,93.44
2022-08-29T06:47:19.813Z,93.19
2022-08-29T06:48:19.806Z,92.33
2022-08-29T06:49:19.783Z,91.27
2022-08-29T06:50:19.771Z,90.79
2022-08-29T06:51:19.761Z,89.10
2022-08-29T06:52:19.745Z,87.46
2022-08-29T06:53:31.571Z,86.11
2022-08-29T06:54:19.719Z,84.32
2022-08-29T06:55:23.909Z,82.14
2022-08-29T06:56:19.693Z,80.79
2022-08-29T06:57:19.677Z,79.68
2022-08-29T06:58:19.663Z,77.21
2022-08-29T06:59:19.647Z,75.22
2022-08-29T07:00:22.541Z,73.90
2022-08-29T07:01:19.668Z,72.88
2022-08-29T07:02:19.675Z,72.33
2022-08-29T07:03:19.608Z,71.94
2022-08-29T07:04:20.855Z,71.08
2022-08-29T07:05:19.581Z,71.17
2022-08-29T07:06:19.573Z,72.04
2022-08-29T07:07:19.557Z,71.84
2022-08-29T07:08:19.544Z,71.08
2022-08-29T07:09:19.533Z,71.81
2022-08-29T07:10:22.538Z,71.42
2022-08-29T07:11:19.515Z,71.78
2022-08-29T07:12:19.502Z,72.55
2022-08-29T07:13:19.490Z,73.52
2022-08-29T07:14:19.480Z,73.96
2022-08-29T07:15:19.464Z,74.54
2022-08-29T07:16:19.531Z,74.64
2022-08-29T07:17:25.858Z,75.31
2022-08-29T07:18:19.432Z,75.02
2022-08-29T07:19:19.426Z,74.73
2022-08-29T07:20:19.413Z,74.16
2022-08-29T07:21:20.932Z,74.06
2022-08-29T07:22:19.387Z,74.64
2022-08-29T07:23:19.373Z,75.02
2022-08-29T07:24:24.245Z,75.06
2022-08-29T07:25:19.350Z,74.10
2022-08-29T07:26:19.340Z,74.38
2022-08-29T07:27:19.328Z,72.78
2022-08-29T07:28:19.317Z,72.33
2022-08-29T07:29:19.303Z,71.36
2022-08-29T07:30:19.295Z,72.30
2022-08-29T07:31:19.361Z,72.45
2022-08-29T07:32:21.717Z,73.13
2022-08-29T07:33:19.260Z,73.16
2022-08-29T07:34:20.719Z,73.65
2022-08-29T07:35:29.586Z,73.26
2022-08-29T07:36:19.238Z,72.33
2022-08-29T07:37:19.215Z,70.26
2022-08-29T07:38:19.208Z,69.43
2022-08-29T07:39:19.196Z,68.88
2022-08-29T07:40:19.286Z,68.88
2022-08-29T07:41:19.181Z,68.43
2022-08-29T07:42:19.164Z,66.88
2022-08-29T07:43:20.458Z,66.14
2022-08-29T07:44:19.148Z,65.01
2022-08-29T07:45:19.135Z,63.65
2022-08-29T07:46:19.200Z,63.56
2022-08-29T07:47:19.115Z,63.23
2022-08-29T07:48:22.952Z,63.56
2022-08-29T07:49:19.097Z,62.10
2022-08-29T07:50:19.093Z,61.55
2022-08-29T07:51:19.084Z,60.90
2022-08-29T07:52:19.070Z,60.54
2022-08-29T07:53:19.065Z,59.41
2022-08-29T07:54:19.063Z,57.95
2022-08-29T07:55:19.050Z,57.39
2022-08-29T07:56:19.060Z,56.93
2022-08-29T07:57:19.044Z,55.79
2022-08-29T07:58:19.031Z,55.72
2022-08-29T07:59:19.026Z,55.23
2022-08-29T08:00:19.022Z,55.04
2022-08-29T08:01:21.187Z,55.30
2022-08-29T08:02:19.062Z,54.72
2022-08-29T08:03:19.000Z,55.21
2022-08-29T08:04:19.175Z,54.82
2022-08-29T08:05:18.989Z,54.69
2022-08-29T08:06:18.984Z,55.64
2022-08-29T08:07:18.977Z,56.81
2022-08-29T08:08:19.313Z,56.90
2022-08-29T08:09:18.970Z,57.29
2022-08-29T08:10:18.961Z,56.81
2022-08-29T08:11:18.955Z,55.83
2022-08-29T08:12:18.943Z,55.49
2022-08-29T08:13:18.937Z,56.59
2022-08-29T08:14:18.933Z,56.10
2022-08-29T08:15:18.928Z,56.61
2022-08-29T08:16:19.052Z,56.64
2022-08-29T08:17:18.917Z,56.09
2022-08-29T08:18:18.914Z,55.21
2022-08-29T08:19:18.906Z,53.87
2022-08-29T08:20:18.901Z,53.09
2022-08-29T08:21:18.895Z,53.65
2022-08-29T08:22:18.889Z,53.85
2022-08-29T08:23:19.231Z,53.87
2022-08-29T08:24:20.025Z,52.97
2022-08-29T08:25:18.879Z,52.97
2022-08-29T08:26:18.872Z,53.45
2022-08-29T08:27:18.866Z,53.33
2022-08-29T08:28:18.862Z,54.01
2022-08-29T08:29:18.857Z,53.96
2022-08-29T08:30:18.853Z,55.92
2022-08-29T08:31:18.943Z,56.26
2022-08-29T08:32:18.850Z,55.41
2022-08-29T08:33:18.835Z,55.18
2022-08-29T08:34:18.839Z,54.13
2022-08-29T08:35:19.897Z,53.38
2022-08-29T08:36:18.824Z,53.14
2022-08-29T08:37:24.186Z,51.02
2022-08-29T08:38:18.821Z,51.39
2022-08-29T08:39:18.815Z,51.95
2022-08-29T08:40:18.882Z,52.02
2022-08-29T08:41:18.804Z,52.48
2022-08-29T08:42:22.958Z,53.06
2022-08-29T08:43:26.790Z,53.52
2022-08-29T08:44:18.794Z,54.01
2022-08-29T08:45:18.798Z,53.96
2022-08-29T08:46:18.879Z,55.39
2022-08-29T08:47:18.776Z,56.14
2022-08-29T08:48:18.771Z,57.01
2022-08-29T08:49:18.764Z,57.42
2022-08-29T08:50:18.756Z,60.43
2022-08-29T08:51:18.754Z,60.43
2022-08-29T08:52:18.747Z,61.76
2022-08-29T08:53:18.739Z,62.43
2022-08-29T08:54:18.735Z,62.43
2022-08-29T08:55:18.722Z,62.75
2022-08-29T08:56:18.717Z,62.95
2022-08-29T08:57:18.708Z,63.04
2022-08-29T08:58:18.699Z,61.69
2022-08-29T08:59:18.692Z,61.85
2022-08-29T09:00:18.686Z,62.69
2022-08-29T09:01:18.773Z,63.18
2022-08-29T09:02:18.737Z,63.53
2022-08-29T09:03:18.656Z,63.53
2022-08-29T09:04:18.668Z,64.76
2022-08-29T09:05:18.640Z,65.72
2022-08-29T09:06:18.629Z,66.59
2022-08-29T09:07:18.620Z,66.59
2022-08-29T09:08:18.618Z,66.20
2022-08-29T09:09:18.597Z,66.20
2022-08-29T09:10:18.595Z,66.24
2022-08-29T09:11:18.580Z,65.14
2022-08-29T09:12:18.565Z,65.95
2022-08-29T09:13:18.563Z,66.11
2022-08-29T09:14:18.552Z,66.53
2022-08-29T09:15:18.542Z,66.53
2022-08-29T09:16:18.585Z,67.79
2022-08-29T09:17:18.513Z,66.63
2022-08-29T09:18:23.794Z,66.43
2022-08-29T09:19:18.493Z,66.08
2022-08-29T09:20:18.541Z,65.69
2022-08-29T09:21:40.094Z,65.11
2022-08-29T09:22:18.467Z,66.43
2022-08-29T09:23:18.450Z,65.08
2022-08-29T09:24:18.444Z,64.53
2022-08-29T09:25:18.427Z,64.30
2022-08-29T09:26:18.421Z,64.20
2022-08-29T09:27:18.412Z,64.40
2022-08-29T09:28:18.398Z,63.69
2022-08-29T09:29:18.397Z,64.20
2022-08-29T09:30:18.379Z,64.37
2022-08-29T09:31:18.464Z,64.98
2022-08-29T09:32:22.346Z,64.89
2022-08-29T09:33:19.094Z,63.04
2022-08-29T09:34:18.331Z,61.16
2022-08-29T09:35:18.318Z,60.64
2022-08-29T09:36:18.309Z,59.17
2022-08-29T09:37:18.304Z,56.86
2022-08-29T09:38:18.292Z,54.85
2022-08-29T09:39:18.281Z,54.06
2022-08-29T09:40:19.049Z,54.41
2022-08-29T09:41:18.258Z,53.36
2022-08-29T09:42:18.244Z,53.34
2022-08-29T09:43:18.231Z,51.90
2022-08-29T09:44:18.228Z,51.29
2022-08-29T09:45:18.221Z,51.87
2022-08-29T09:46:18.315Z,50.68
2022-08-29T09:47:18.200Z,49.75
2022-08-29T09:48:18.188Z,49.09
2022-08-29T09:49:18.178Z,49.09
2022-08-29T09:50:18.188Z,48.63
2022-08-29T09:51:18.162Z,48.65
2022-08-29T09:52:18.152Z,47.40
2022-08-29T09:53:25.015Z,47.62
2022-08-29T09:54:18.137Z,46.91
2022-08-29T09:55:18.124Z,45.85
2022-08-29T09:56:18.136Z,45.28
2022-08-29T09:57:18.127Z,44.73
2022-08-29T09:58:18.104Z,44.54
2022-08-29T09:59:18.110Z,44.07
2022-08-29T10:00:18.146Z,44.15
2022-08-29T10:01:18.303Z,43.73
2022-08-29T10:02:18.088Z,44.37
2022-08-29T10:03:18.059Z,44.81
2022-08-29T10:04:18.054Z,48.85
2022-08-29T10:05:18.040Z,50.41
2022-08-29T10:06:18.033Z,51.65
2022-08-29T10:07:18.033Z,52.53
2022-08-29T10:08:18.018Z,52.50
2022-08-29T10:09:18.011Z,52.99
2022-08-29T10:10:18.010Z,53.28
2022-08-29T10:11:17.994Z,53.09
2022-08-29T10:12:17.998Z,53.58
2022-08-29T10:13:17.979Z,54.02
2022-08-29T10:14:17.987Z,53.75
2022-08-29T10:15:33.613Z,52.51
2022-08-29T10:16:18.019Z,52.25
2022-08-29T10:17:17.939Z,50.71
2022-08-29T10:18:17.938Z,50.59
2022-08-29T10:19:17.919Z,51.37
2022-08-29T10:20:17.915Z,52.05
2022-08-29T10:21:17.914Z,50.20
2022-08-29T10:22:17.965Z,50.73
2022-08-29T10:23:17.886Z,51.87
2022-08-29T10:24:19.500Z,52.95
2022-08-29T10:25:17.867Z,53.14
2022-08-29T10:26:17.866Z,53.44
2022-08-29T10:27:17.861Z,52.99
2022-08-29T10:28:17.843Z,53.67
2022-08-29T10:29:17.845Z,54.62
2022-08-29T10:30:17.833Z,55.21
2022-08-29T10:31:17.872Z,54.91
2022-08-29T10:32:17.806Z,55.11
2022-08-29T10:33:17.801Z,55.89
2022-08-29T10:34:17.789Z,55.60
2022-08-29T10:35:17.778Z,55.82
2022-08-29T10:36:17.773Z,55.52
2022-08-29T10:37:17.764Z,55.62
2022-08-29T10:38:17.754Z,55.62
2022-08-29T10:39:17.743Z,55.33
2022-08-29T10:40:17.953Z,54.46
2022-08-29T10:41:17.723Z,54.85
2022-08-29T10:42:17.712Z,55.26
2022-08-29T10:43:17.701Z,54.68
2022-08-29T10:45:17.686Z,54.19
2022-08-29T10:46:17.875Z,54.31
2022-08-29T10:47:17.664Z,54.31
2022-08-29T10:48:17.674Z,53.89
2022-08-29T10:49:17.650Z,54.79
2022-08-29T10:50:42.540Z,56.45
2022-08-29T10:51:17.634Z,55.99
2022-08-29T10:52:17.614Z,55.01
2022-08-29T10:53:17.613Z,54.82
2022-08-29T10:54:17.596Z,55.60
2022-08-29T10:55:17.590Z,55.79
2022-08-29T10:56:17.596Z,55.99
2022-08-29T10:57:17.576Z,55.60
2022-08-29T10:58:17.558Z,55.69
2022-08-29T10:59:17.562Z,56.09
2022-08-29T11:00:17.543Z,55.99
2022-08-29T11:01:17.623Z,56.70
2022-08-29T11:02:17.524Z,56.11
2022-08-29T11:03:17.515Z,54.97
2022-08-29T11:04:17.885Z,55.07
2022-08-29T11:05:17.496Z,55.23
2022-08-29T11:06:17.486Z,55.01
2022-08-29T11:07:17.477Z,56.00
2022-08-29T11:08:17.850Z,59.34
2022-08-29T11:09:17.460Z,60.71
2022-08-29T11:10:17.448Z,60.61
2022-08-29T11:11:17.442Z,61.48
2022-08-29T11:12:17.897Z,60.80
2022-08-29T11:13:17.423Z,62.48
2022-08-29T11:14:17.410Z,61.61
2022-08-29T11:15:17.403Z,61.32
2022-08-29T11:16:17.464Z,60.67
2022-08-29T11:17:17.382Z,59.41
2022-08-29T11:18:22.357Z,59.82
2022-08-29T11:19:22.097Z,60.70
2022-08-29T11:20:17.353Z,60.60
2022-08-29T11:21:17.345Z,59.56
2022-08-29T11:22:17.340Z,59.27
2022-08-29T11:23:17.326Z,59.75
2022-08-29T11:24:17.314Z,60.63
2022-08-29T11:25:17.302Z,61.05
2022-08-29T11:26:17.292Z,59.49
2022-08-29T11:27:17.286Z,59.81
2022-08-29T11:28:17.324Z,58.54
2022-08-29T11:29:17.268Z,57.96
2022-08-29T11:30:17.254Z,58.06
2022-08-29T11:31:17.282Z,59.33
2022-08-29T11:32:17.241Z,58.25
2022-08-29T11:33:17.315Z,58.54
2022-08-29T11:34:17.221Z,58.94
2022-08-29T11:35:17.206Z,58.61
2022-08-29T11:36:17.198Z,59.20
2022-08-29T11:37:17.191Z,59.49
2022-08-29T11:38:17.179Z,59.27
2022-08-29T11:39:17.171Z,59.75
2022-08-29T11:40:17.175Z,59.85
2022-08-29T11:41:32.583Z,59.95
2022-08-29T11:42:49.835Z,60.15
2022-08-29T11:43:17.405Z,60.64
2022-08-29T11:44:17.128Z,60.31
2022-08-29T11:45:17.115Z,61.16
2022-08-29T11:46:17.115Z,61.45
2022-08-29T11:47:17.159Z,62.62
2022-08-29T11:48:17.085Z,63.29
2022-08-29T11:49:17.069Z,62.52
2022-08-29T11:50:17.100Z,62.13
2022-08-29T11:51:17.048Z,62.52
2022-08-29T11:52:18.956Z,63.04
2022-08-29T11:53:17.149Z,62.74
2022-08-29T11:54:17.018Z,62.52
2022-08-29T11:55:17.013Z,62.52
2022-08-29T11:56:17.000Z,62.91
2022-08-29T11:57:16.994Z,64.69
2022-08-29T11:58:16.984Z,65.53
2022-08-29T11:59:16.968Z,65.37
2022-08-29T12:00:16.989Z,65.14
2022-08-29T12:01:18.918Z,65.63
2022-08-29T12:02:16.987Z,65.72
2022-08-29T12:03:28.008Z,66.08
2022-08-29T12:04:16.991Z,66.37
2022-08-29T12:05:16.909Z,66.85
2022-08-29T12:06:16.894Z,66.47
2022-08-29T12:07:16.889Z,66.89
2022-08-29T12:08:35.953Z,66.89
2022-08-29T12:09:16.863Z,66.14
2022-08-29T12:10:16.856Z,65.89
2022-08-29T12:11:16.842Z,65.01
2022-08-29T12:12:16.833Z,65.79
2022-08-29T12:13:16.839Z,64.07
2022-08-29T12:14:16.813Z,63.65
2022-08-29T12:15:16.798Z,63.88
2022-08-29T12:16:16.885Z,64.26
2022-08-29T12:17:16.781Z,64.40
2022-08-29T12:18:16.933Z,63.65
2022-08-29T12:19:16.753Z,62.41
2022-08-29T12:20:16.746Z,62.03
2022-08-29T12:21:16.735Z,62.26
2022-08-29T12:22:22.606Z,60.08
2022-08-29T12:23:16.918Z,60.60
2022-08-29T12:24:16.706Z,60.25
2022-08-29T12:25:16.692Z,61.12
2022-08-29T12:26:22.597Z,61.55
2022-08-29T12:27:20.422Z,64.11
2022-08-29T12:28:16.662Z,64.59
2022-08-29T12:29:16.652Z,65.30
2022-08-29T12:30:16.645Z,65.89
2022-08-29T12:31:16.664Z,65.33
2022-08-29T12:32:23.069Z,64.59
2022-08-29T12:33:16.732Z,63.81
2022-08-29T12:34:16.608Z,63.84
2022-08-29T12:35:16.596Z,63.68
2022-08-29T12:36:16.587Z,62.74
2022-08-29T12:37:16.576Z,62.16
2022-08-29T12:38:16.569Z,61.38
2022-08-29T12:39:19.639Z,60.53
2022-08-29T12:40:16.589Z,60.34
2022-08-29T12:41:16.539Z,60.99
2022-08-29T12:42:16.520Z,61.02
2022-08-29T12:43:16.779Z,60.72
2022-08-29T12:44:16.501Z,59.66
2022-08-29T12:45:16.493Z,60.34
2022-08-29T12:46:16.568Z,60.44
2022-08-29T12:47:16.472Z,60.63
2022-08-29T12:48:16.763Z,60.72
2022-08-29T12:49:16.454Z,60.63
2022-08-29T12:50:16.445Z,60.53
2022-08-29T12:51:16.432Z,60.63
2022-08-29T12:52:16.433Z,60.53
2022-08-29T12:53:16.413Z,59.75
2022-08-29T12:54:16.407Z,60.66